createdAt,value
2023-03-20T00:00:59.004Z,11.30
2023-03-20T00:03:10.803Z,12.13
2023-03-20T00:05:19.998Z,13.90
2023-03-20T00:07:26.747Z,10.88
2023-03-20T00:11:45.998Z,9.68
2023-03-20T00:13:49.547Z,15.77
2023-03-20T00:15:54.896Z,10.48
2023-03-20T00:17:59.812Z,14.93
2023-03-20T00:20:20.632Z,16.13
2023-03-20T00:22:25.007Z,17.13
2023-03-20T00:26:34.731Z,14.52
2023-03-20T00:28:37.926Z,15.77
2023-03-20T00:30:39.400Z,14.15
2023-03-20T00:32:41.119Z,20.38
2023-03-20T00:34:45.216Z,13.93
2023-03-20T00:36:47.226Z,16.45
2023-03-20T00:38:48.676Z,12.35
2023-03-20T00:40:53.061Z,13.52
2023-03-20T00:42:58.341Z,17.25
2023-03-20T00:45:02.708Z,19.88
2023-03-20T00:47:27.227Z,14.32
2023-03-20T00:49:29.791Z,12.90
2023-03-20T00:51:31.607Z,16.52
2023-03-20T00:53:35.957Z,16.10
2023-03-20T00:55:40.676Z,19.80
2023-03-20T00:57:44.421Z,19.33
2023-03-20T00:59:57.077Z,13.27
2023-03-20T01:01:59.213Z,16.00
2023-03-20T01:04:09.099Z,16.20
2023-03-20T01:06:13.750Z,15.32
2023-03-20T01:08:19.216Z,18.10
2023-03-20T01:10:28.253Z,18.50
2023-03-20T01:12:29.756Z,19.52
2023-03-20T01:14:34.048Z,21.98
2023-03-20T01:16:54.548Z,21.33
2023-03-20T01:18:56.732Z,20.70
2023-03-20T01:20:58.339Z,30.10
2023-03-20T01:23:06.263Z,21.90
2023-03-20T01:25:07.941Z,18.40
2023-03-20T01:27:14.010Z,17.88
2023-03-20T01:29:25.510Z,21.40
2023-03-20T01:31:27.264Z,23.33
2023-03-20T01:33:29.453Z,14.98
2023-03-20T01:35:34.028Z,25.38
2023-03-20T01:37:42.255Z,19.55
2023-03-20T01:39:46.493Z,21.92
2023-03-20T01:41:54.254Z,24.08
2023-03-20T01:44:00.039Z,21.75
2023-03-20T01:46:04.108Z,25.00
2023-03-20T01:48:14.930Z,15.85
2023-03-20T01:50:35.377Z,24.25
2023-03-20T01:52:39.985Z,18.65
2023-03-20T01:54:44.404Z,23.55
2023-03-20T01:56:48.573Z,21.52
2023-03-20T01:58:56.673Z,24.67
2023-03-20T02:01:01.349Z,19.20
2023-03-20T02:05:09.077Z,27.60
2023-03-20T02:07:29.922Z,18.20
2023-03-20T02:09:50.403Z,15.35
2023-03-20T02:11:54.643Z,21.98
2023-03-20T02:13:59.415Z,19.50
2023-03-20T02:16:05.528Z,14.88
2023-03-20T02:18:08.960Z,30.60
2023-03-20T02:20:18.888Z,21.50
2023-03-20T02:22:51.559Z,17.50
2023-03-20T02:24:58.248Z,23.63
2023-03-20T02:27:04.836Z,30.73
2023-03-20T02:29:11.428Z,16.02
2023-03-20T02:31:18.549Z,19.20
2023-03-20T02:33:36.793Z,23.02
2023-03-20T02:36:04.577Z,26.50
2023-03-20T02:38:30.984Z,31.58
2023-03-20T02:40:37.806Z,22.95
2023-03-20T02:43:14.150Z,28.42
2023-03-20T02:45:33.144Z,24.33
2023-03-20T02:47:42.347Z,22.25
2023-03-20T02:50:15.629Z,27.58
2023-03-20T02:52:22.619Z,25.67
2023-03-20T02:54:32.596Z,35.47
2023-03-20T02:58:58.653Z,26.98
2023-03-20T03:01:06.195Z,41.22
2023-03-20T03:03:17.108Z,24.60
2023-03-20T03:05:23.877Z,35.45
2023-03-20T03:07:47.043Z,29.88
2023-03-20T03:09:53.951Z,25.48
2023-03-20T03:11:57.641Z,28.20
2023-03-20T03:13:59.202Z,24.73
2023-03-20T03:16:03.328Z,23.20
2023-03-20T03:20:16.986Z,30.45
2023-03-20T03:22:21.503Z,33.60
2023-03-20T03:24:49.258Z,31.20
2023-03-20T03:26:51.759Z,36.03
2023-03-20T03:28:57.995Z,21.15
2023-03-20T03:31:02.216Z,40.05
2023-03-20T03:33:17.937Z,17.95
2023-03-20T03:35:21.278Z,24.15
2023-03-20T03:37:25.634Z,24.65
2023-03-20T03:39:46.492Z,25.33
2023-03-20T03:41:53.791Z,28.10
2023-03-20T03:43:58.121Z,30.17
2023-03-20T03:46:09.437Z,27.50
2023-03-20T03:48:13.214Z,24.05
2023-03-20T03:50:26.917Z,29.90
2023-03-20T03:52:30.116Z,22.83
2023-03-20T03:54:46.185Z,36.00
2023-03-20T03:56:48.805Z,30.40
2023-03-20T03:59:11.460Z,25.80
2023-03-20T04:01:13.765Z,31.25
2023-03-20T04:03:20.318Z,35.53
2023-03-20T04:05:26.629Z,23.75
2023-03-20T04:07:31.307Z,25.77
2023-03-20T04:09:51.560Z,39.03
2023-03-20T04:11:53.358Z,24.80
2023-03-20T04:13:57.766Z,33.40
2023-03-20T04:15:59.218Z,31.33
2023-03-20T04:18:06.457Z,32.83
2023-03-20T04:20:08.976Z,24.25
2023-03-20T04:22:10.445Z,31.77
2023-03-20T04:24:18.136Z,25.13
2023-03-20T04:26:19.642Z,32.97
2023-03-20T04:28:21.179Z,46.03
2023-03-20T04:32:26.616Z,38.33
2023-03-20T04:34:30.586Z,26.88
2023-03-20T04:36:34.943Z,31.25
2023-03-20T04:38:39.082Z,27.08
2023-03-20T04:40:40.691Z,27.52
2023-03-20T04:43:00.754Z,26.67
2023-03-20T04:45:02.220Z,20.85
2023-03-20T04:47:06.645Z,27.40
2023-03-20T04:49:11.320Z,15.77
2023-03-20T04:51:15.666Z,31.45
2023-03-20T04:53:18.014Z,21.17
2023-03-20T04:55:38.096Z,18.70
2023-03-20T04:57:42.442Z,26.10
2023-03-20T05:01:48.177Z,15.00
2023-03-20T05:03:49.799Z,15.32
2023-03-20T05:05:54.373Z,18.30
2023-03-20T05:07:58.766Z,19.42
2023-03-20T05:10:00.380Z,19.65
2023-03-20T05:12:02.004Z,18.45
2023-03-20T05:14:21.825Z,18.33
2023-03-20T05:16:26.680Z,18.90
2023-03-20T05:18:35.733Z,22.73
2023-03-20T05:20:41.194Z,22.65
2023-03-20T05:22:54.174Z,22.75
2023-03-20T05:25:05.154Z,11.15
2023-03-20T05:27:11.971Z,17.20
2023-03-20T05:29:37.750Z,25.02
2023-03-20T05:31:45.930Z,15.25
2023-03-20T05:33:56.977Z,11.48
2023-03-20T05:36:04.647Z,17.05
2023-03-20T05:38:15.059Z,20.77
2023-03-20T05:40:27.242Z,21.42
2023-03-20T05:42:36.966Z,16.60
2023-03-20T05:44:45.192Z,20.70
2023-03-20T05:46:53.278Z,20.02
2023-03-20T05:49:02.426Z,21.38
2023-03-20T05:51:10.627Z,26.35
2023-03-20T05:53:16.491Z,23.15
2023-03-20T05:55:17.950Z,19.30
2023-03-20T05:57:22.888Z,30.60
2023-03-20T05:59:26.985Z,25.70
2023-03-20T06:01:28.561Z,35.92
2023-03-20T06:03:30.029Z,28.40
2023-03-20T06:05:35.563Z,28.80
2023-03-20T06:07:37.357Z,28.10
2023-03-20T06:09:39.007Z,17.98
2023-03-20T06:11:59.409Z,28.10
2023-03-20T06:14:01.476Z,37.22
2023-03-20T06:16:06.284Z,24.00
2023-03-20T06:18:08.064Z,16.23
2023-03-20T06:20:10.046Z,27.73
2023-03-20T06:22:14.526Z,22.83
2023-03-20T06:26:20.735Z,18.00
2023-03-20T06:28:25.493Z,15.52
2023-03-20T06:30:30.054Z,14.82
2023-03-20T06:32:31.555Z,21.15
2023-03-20T06:34:33.030Z,32.28
2023-03-20T06:36:34.465Z,23.70
2023-03-20T06:38:36.097Z,20.73
2023-03-20T06:40:40.294Z,19.10
2023-03-20T06:42:44.762Z,16.73
2023-03-20T06:45:05.522Z,24.67
2023-03-20T06:47:09.863Z,19.27
2023-03-20T06:49:14.918Z,15.25
2023-03-20T06:51:18.956Z,15.45
2023-03-20T06:53:23.429Z,20.95
2023-03-20T06:57:28.868Z,17.27
2023-03-20T06:59:30.378Z,11.70
2023-03-20T07:01:34.661Z,16.67
2023-03-20T07:03:54.954Z,16.23
2023-03-20T07:08:00.961Z,6.82
2023-03-20T07:10:05.262Z,9.85
2023-03-20T07:12:14.496Z,10.75
2023-03-20T07:14:18.877Z,5.55
2023-03-20T07:16:21.018Z,10.02
2023-03-20T07:18:22.749Z,7.78
2023-03-20T07:20:26.851Z,8.75
2023-03-20T07:22:29.398Z,7.55
2023-03-20T07:24:34.433Z,12.68
2023-03-20T07:26:38.704Z,18.58
2023-03-20T07:28:40.278Z,7.97
2023-03-20T07:30:42.078Z,9.38
2023-03-20T07:32:44.311Z,12.65
2023-03-20T07:34:46.708Z,12.02
2023-03-20T07:36:53.888Z,9.90
2023-03-20T07:38:58.215Z,7.45
2023-03-20T07:41:02.834Z,5.18
2023-03-20T07:43:07.194Z,4.28
2023-03-20T07:47:12.697Z,8.15
2023-03-20T07:49:20.571Z,10.25
2023-03-20T07:51:22.013Z,6.95
2023-03-20T07:53:41.927Z,7.10
2023-03-20T07:55:43.857Z,13.30
2023-03-20T07:57:49.324Z,11.82
2023-03-20T07:59:53.725Z,6.68
2023-03-20T08:01:58.083Z,7.95
2023-03-20T08:04:19.796Z,8.57
2023-03-20T08:06:24.516Z,11.63
2023-03-20T08:08:28.824Z,12.20
2023-03-20T08:10:33.136Z,9.52
2023-03-20T08:12:37.480Z,5.63
2023-03-20T08:14:43.731Z,7.63
2023-03-20T08:16:52.055Z,7.88
2023-03-20T08:19:01.723Z,7.85
2023-03-20T08:21:03.533Z,9.82
2023-03-20T08:23:06.896Z,5.05
2023-03-20T08:25:16.188Z,7.78
2023-03-20T08:27:27.526Z,4.68
2023-03-20T08:29:32.023Z,14.45
2023-03-20T08:31:38.146Z,9.77
2023-03-20T08:33:44.610Z,10.85
2023-03-20T08:35:56.834Z,6.95
2023-03-20T08:38:03.428Z,11.27
2023-03-20T08:40:06.619Z,12.95
2023-03-20T08:42:10.249Z,10.70
2023-03-20T08:44:12.956Z,4.50
2023-03-20T08:46:16.916Z,16.15
2023-03-20T08:48:23.715Z,6.45
2023-03-20T08:50:30.038Z,12.05
2023-03-20T08:52:34.073Z,8.70
2023-03-20T08:54:36.285Z,11.63
2023-03-20T08:56:58.696Z,11.43
2023-03-20T08:59:02.596Z,9.73
2023-03-20T09:01:05.596Z,9.45
2023-03-20T09:03:16.625Z,9.57
2023-03-20T09:05:18.199Z,5.95
2023-03-20T09:07:19.725Z,6.90
2023-03-20T09:09:39.906Z,9.20
2023-03-20T09:11:44.592Z,10.15
2023-03-20T09:13:52.206Z,10.50
2023-03-20T09:16:14.921Z,8.15
2023-03-20T09:20:21.029Z,4.97
2023-03-20T09:22:25.272Z,8.48
2023-03-20T09:24:26.990Z,6.22
2023-03-20T09:28:35.282Z,3.03
2023-03-20T09:30:37.063Z,2.55
2023-03-20T09:32:41.830Z,10.27
2023-03-20T09:35:02.525Z,4.15
2023-03-20T09:37:06.765Z,8.52
2023-03-20T09:39:08.908Z,3.72
2023-03-20T09:41:49.184Z,7.60
2023-03-20T09:43:54.913Z,8.52
2023-03-20T09:46:14.242Z,8.68
2023-03-20T09:48:21.320Z,3.20
2023-03-20T09:50:25.558Z,5.38
2023-03-20T09:52:27.151Z,6.13
2023-03-20T09:54:52.793Z,12.57
2023-03-20T09:57:22.632Z,5.28
2023-03-20T09:59:27.076Z,5.63
2023-03-20T10:01:48.332Z,9.25
2023-03-20T10:03:57.977Z,3.90
2023-03-20T10:06:04.188Z,8.10
2023-03-20T10:08:14.971Z,7.80
2023-03-20T10:10:20.501Z,6.20
2023-03-20T10:12:41.386Z,3.20
2023-03-20T10:14:48.222Z,4.72
2023-03-20T10:16:59.755Z,4.65
2023-03-20T10:19:13.365Z,4.05
2023-03-20T10:21:18.971Z,7.05
2023-03-20T10:23:33.394Z,11.80
2023-03-20T10:25:42.294Z,5.40
2023-03-20T10:27:50.047Z,6.85
2023-03-20T10:30:12.891Z,7.90
2023-03-20T10:32:21.114Z,5.03
2023-03-20T10:34:22.581Z,7.70
2023-03-20T10:36:45.243Z,5.07
2023-03-20T10:38:52.521Z,4.72
2023-03-20T10:40:55.519Z,8.57
2023-03-20T10:43:02.493Z,4.78
2023-03-20T10:45:22.731Z,9.38
2023-03-20T10:47:43.469Z,7.05
2023-03-20T10:49:51.326Z,5.28
2023-03-20T10:52:18.205Z,4.68
2023-03-20T10:54:38.725Z,4.28
2023-03-20T10:56:46.316Z,4.53
2023-03-20T10:58:50.354Z,6.05
2023-03-20T11:00:58.040Z,4.30
2023-03-20T11:03:02.314Z,2.92
2023-03-20T11:05:25.337Z,1.67
2023-03-20T11:07:32.693Z,2.50
2023-03-20T11:09:36.770Z,2.10
2023-03-20T11:11:44.399Z,7.80
2023-03-20T11:13:49.347Z,3.25
2023-03-20T11:15:54.109Z,3.47
2023-03-20T11:18:06.086Z,4.63
2023-03-20T11:20:08.349Z,1.50
2023-03-20T11:22:22.422Z,1.92
2023-03-20T11:24:29.893Z,1.38
2023-03-20T11:26:38.600Z,3.92
2023-03-20T11:28:47.668Z,2.45
2023-03-20T11:31:04.529Z,3.15
2023-03-20T11:33:10.537Z,1.70
2023-03-20T11:35:20.963Z,1.08
2023-03-20T11:37:25.633Z,1.95
2023-03-20T11:39:33.105Z,1.25
2023-03-20T11:41:41.837Z,2.78
2023-03-20T11:43:46.168Z,1.15
2023-03-20T11:46:10.637Z,1.55
2023-03-20T11:48:17.826Z,1.98
2023-03-20T11:50:34.309Z,0.63
2023-03-20T11:52:38.032Z,1.00
2023-03-20T11:54:46.840Z,2.17
2023-03-20T11:56:52.454Z,0.55
2023-03-20T11:59:14.276Z,1.02
2023-03-20T12:01:20.814Z,0.77
2023-03-20T12:03:34.607Z,3.25
2023-03-20T12:05:37.261Z,3.30
2023-03-20T12:07:41.925Z,0.45
2023-03-20T12:09:51.364Z,3.15
2023-03-20T12:12:05.639Z,2.50
2023-03-20T12:14:17.842Z,1.67
2023-03-20T12:16:21.490Z,4.40
2023-03-20T12:18:35.226Z,2.33
2023-03-20T12:20:42.410Z,3.03
2023-03-20T12:22:53.474Z,1.65
2023-03-20T12:24:58.430Z,2.42
2023-03-20T12:27:18.759Z,2.67
2023-03-20T12:29:26.497Z,3.15
2023-03-20T12:31:46.706Z,0.60
2023-03-20T12:34:11.624Z,3.20
2023-03-20T12:36:18.490Z,5.70
2023-03-20T12:40:34.972Z,3.03
2023-03-20T12:42:42.836Z,7.68
2023-03-20T12:44:58.981Z,0.80
2023-03-20T12:47:11.510Z,3.00
2023-03-20T12:49:34.357Z,5.63
2023-03-20T12:51:50.384Z,5.03
2023-03-20T12:53:51.776Z,1.90
2023-03-20T12:56:01.560Z,3.03
2023-03-20T12:58:11.145Z,4.95
2023-03-20T13:00:37.700Z,1.95
2023-03-20T13:03:00.815Z,7.70
2023-03-20T13:05:43.538Z,2.72
2023-03-20T13:08:03.098Z,4.93
2023-03-20T13:10:27.610Z,4.22
2023-03-20T13:13:17.420Z,3.08
2023-03-20T13:15:31.024Z,3.92
2023-03-20T13:17:50.993Z,3.15
2023-03-20T13:20:16.382Z,2.70
2023-03-20T13:22:43.728Z,5.55
2023-03-20T13:26:49.132Z,7.97
2023-03-20T13:29:09.408Z,4.68
2023-03-20T13:31:23.337Z,5.38
2023-03-20T13:33:50.729Z,4.13
2023-03-20T13:36:02.194Z,2.70
2023-03-20T13:38:16.797Z,6.45
2023-03-20T13:40:26.169Z,3.00
2023-03-20T13:43:05.103Z,4.95
2023-03-20T13:45:24.357Z,7.47
2023-03-20T13:47:29.147Z,6.05
2023-03-20T13:49:37.895Z,8.95
2023-03-20T13:51:43.433Z,7.53
2023-03-20T13:54:06.543Z,5.10
2023-03-20T13:56:11.108Z,4.25
2023-03-20T13:58:27.328Z,5.97
2023-03-20T14:00:36.299Z,4.13
2023-03-20T14:02:41.082Z,2.65
2023-03-20T14:04:42.708Z,3.20
2023-03-20T14:06:52.094Z,5.35
2023-03-20T14:08:54.336Z,4.60
2023-03-20T14:11:13.806Z,8.38
2023-03-20T14:13:18.518Z,1.05
2023-03-20T14:15:20.517Z,2.15
2023-03-20T14:17:26.041Z,2.38
2023-03-20T14:19:30.391Z,3.83
2023-03-20T14:21:34.658Z,0.80
2023-03-20T14:23:37.441Z,11.35
2023-03-20T14:25:43.554Z,2.15
2023-03-20T14:28:08.156Z,4.00
2023-03-20T14:30:31.341Z,5.65
2023-03-20T14:32:34.123Z,3.22
2023-03-20T14:34:44.926Z,2.17
2023-03-20T14:37:04.303Z,3.80
2023-03-20T14:39:49.800Z,1.75
2023-03-20T14:42:15.654Z,2.78
2023-03-20T14:44:23.463Z,4.47
2023-03-20T14:46:54.007Z,4.97
2023-03-20T14:49:31.586Z,2.50
2023-03-20T14:51:46.427Z,4.28
2023-03-20T14:54:00.448Z,3.95
2023-03-20T14:56:30.509Z,4.40
2023-03-20T14:58:40.746Z,4.38
2023-03-20T15:00:48.468Z,6.25
2023-03-20T15:03:01.975Z,6.13
2023-03-20T15:05:10.067Z,5.32
2023-03-20T15:07:19.373Z,4.93
2023-03-20T15:09:46.945Z,6.80
2023-03-20T15:11:52.842Z,3.97
2023-03-20T15:13:58.981Z,8.15
2023-03-20T15:16:11.110Z,8.88
2023-03-20T15:18:21.179Z,12.02
2023-03-20T15:20:29.673Z,6.82
2023-03-20T15:22:31.225Z,12.95
2023-03-20T15:24:32.680Z,5.68
2023-03-20T15:26:35.868Z,4.40
2023-03-20T15:28:37.807Z,5.95
2023-03-20T15:30:39.928Z,6.10
2023-03-20T15:32:45.369Z,6.35
2023-03-20T15:34:51.328Z,4.07
2023-03-20T15:36:55.306Z,3.22
2023-03-20T15:39:05.441Z,4.13
2023-03-20T15:41:24.525Z,5.63
2023-03-20T15:43:26.634Z,5.75
2023-03-20T15:45:31.637Z,4.82
2023-03-20T15:47:52.106Z,8.10
2023-03-20T15:49:57.525Z,7.25
2023-03-20T15:52:05.396Z,7.18
2023-03-20T15:54:08.034Z,7.63
2023-03-20T15:56:18.674Z,10.75
2023-03-20T15:58:20.955Z,14.70
2023-03-20T16:02:27.864Z,15.70
2023-03-20T16:04:29.461Z,21.33
2023-03-20T16:06:33.591Z,23.02
2023-03-20T16:08:39.154Z,23.23
2023-03-20T16:10:42.939Z,23.02
2023-03-20T16:12:51.508Z,19.58
2023-03-20T16:14:53.293Z,29.85
2023-03-20T16:17:13.840Z,23.98
2023-03-20T16:19:16.536Z,22.75
2023-03-20T16:21:22.713Z,21.17
2023-03-20T16:23:45.468Z,20.73
2023-03-20T16:25:56.709Z,24.60
2023-03-20T16:28:00.955Z,21.58
2023-03-20T16:30:25.289Z,19.65
2023-03-20T16:32:27.960Z,19.75
2023-03-20T16:34:36.493Z,23.02
2023-03-20T16:36:38.370Z,25.63
2023-03-20T16:38:40.910Z,23.17
2023-03-20T16:40:42.684Z,25.45
2023-03-20T16:42:45.642Z,26.88
2023-03-20T16:44:47.479Z,16.65
2023-03-20T16:47:02.599Z,30.23
2023-03-20T16:49:16.116Z,28.15
2023-03-20T16:51:27.570Z,16.77
2023-03-20T16:53:41.003Z,21.48
2023-03-20T16:55:46.154Z,27.63
2023-03-20T16:58:06.623Z,19.25
2023-03-20T17:00:31.353Z,19.88
2023-03-20T17:02:36.973Z,16.45
2023-03-20T17:04:41.294Z,22.55
2023-03-20T17:06:52.895Z,23.08
2023-03-20T17:08:56.344Z,24.52
2023-03-20T17:10:59.296Z,28.65
2023-03-20T17:13:00.829Z,26.27
2023-03-20T17:15:05.251Z,17.67
2023-03-20T17:17:12.001Z,23.92
2023-03-20T17:19:17.663Z,17.60
2023-03-20T17:21:37.853Z,23.98
2023-03-20T17:23:39.809Z,14.43
2023-03-20T17:25:44.546Z,12.80
2023-03-20T17:27:46.568Z,15.30
2023-03-20T17:29:51.247Z,25.92
2023-03-20T17:31:52.829Z,19.75
2023-03-20T17:34:00.350Z,18.92
2023-03-20T17:36:01.998Z,17.15
2023-03-20T17:38:06.617Z,18.10
2023-03-20T17:40:16.070Z,16.67
2023-03-20T17:42:18.897Z,17.08
2023-03-20T17:44:22.520Z,16.33
2023-03-20T17:46:34.538Z,10.48
2023-03-20T17:48:44.253Z,13.23
2023-03-20T17:50:49.928Z,20.67
2023-03-20T17:52:53.891Z,16.40
2023-03-20T17:54:57.297Z,21.98
2023-03-20T17:57:06.473Z,13.05
2023-03-20T17:59:14.083Z,25.70
2023-03-20T18:01:16.849Z,15.30
2023-03-20T18:03:38.425Z,17.92
2023-03-20T18:05:42.775Z,22.17
2023-03-20T18:07:46.405Z,19.30
2023-03-20T18:09:52.278Z,28.73
2023-03-20T18:11:55.174Z,19.77
2023-03-20T18:14:19.572Z,18.05
2023-03-20T18:16:24.627Z,28.23
2023-03-20T18:18:27.239Z,23.58
2023-03-20T18:20:32.930Z,10.90
2023-03-20T18:22:34.501Z,24.35
2023-03-20T18:24:36.546Z,25.98
2023-03-20T18:26:40.655Z,17.75
2023-03-20T18:28:42.178Z,25.58
2023-03-20T18:30:43.912Z,21.25
2023-03-20T18:33:04.707Z,16.77
2023-03-20T18:35:06.562Z,20.92
2023-03-20T18:37:12.493Z,20.23
2023-03-20T18:39:17.646Z,19.38
2023-03-20T18:41:19.265Z,17.50
2023-03-20T18:43:21.016Z,18.60
2023-03-20T18:45:27.482Z,22.33
2023-03-20T18:47:31.575Z,14.45
2023-03-20T18:49:38.618Z,24.30
2023-03-20T18:51:40.348Z,16.38
2023-03-20T18:53:41.908Z,25.50
2023-03-20T18:55:46.474Z,28.05
2023-03-20T18:57:51.144Z,30.27
2023-03-20T18:59:55.732Z,16.58
2023-03-20T19:02:00.791Z,24.80
2023-03-20T19:04:02.729Z,24.10
2023-03-20T19:06:10.509Z,28.88
2023-03-20T19:08:16.183Z,21.90
2023-03-20T19:10:33.069Z,21.83
2023-03-20T19:12:37.166Z,27.60
2023-03-20T19:14:41.317Z,25.70
2023-03-20T19:16:46.260Z,32.47
2023-03-20T19:18:51.834Z,22.92
2023-03-20T19:20:57.356Z,27.20
2023-03-20T19:23:19.672Z,29.00
2023-03-20T19:25:22.127Z,20.20
2023-03-20T19:27:23.711Z,16.67
2023-03-20T19:29:25.239Z,19.45
2023-03-20T19:31:27.329Z,38.53
2023-03-20T19:33:28.755Z,22.60
2023-03-20T19:38:22.271Z,31.95
2023-03-20T19:40:34.483Z,28.58
2023-03-20T19:42:58.890Z,27.13
2023-03-20T19:45:09.635Z,17.98
2023-03-20T19:47:13.976Z,20.27
2023-03-20T19:49:19.801Z,25.92
2023-03-20T19:51:22.969Z,19.20
2023-03-20T19:53:29.565Z,29.58
2023-03-20T19:55:37.628Z,18.00
2023-03-20T19:57:39.346Z,20.88
2023-03-20T19:59:43.881Z,21.70
2023-03-20T20:01:45.926Z,22.13
2023-03-20T20:03:53.399Z,21.55
2023-03-20T20:05:55.601Z,20.67
2023-03-20T20:08:24.390Z,18.20
2023-03-20T20:10:43.337Z,14.93
2023-03-20T20:12:44.759Z,18.30
2023-03-20T20:16:52.682Z,16.00
2023-03-20T20:18:57.439Z,23.02
2023-03-20T20:23:24.190Z,10.23
2023-03-20T20:25:28.300Z,10.23
2023-03-20T20:27:29.750Z,13.93
2023-03-20T20:29:33.970Z,16.10
2023-03-20T20:31:35.529Z,15.07
2023-03-20T20:33:37.281Z,16.08
2023-03-20T20:36:01.306Z,19.98
2023-03-20T20:40:28.117Z,16.38
2023-03-20T20:42:29.551Z,15.27
2023-03-20T20:44:50.263Z,25.17
2023-03-20T20:46:54.476Z,15.40
2023-03-20T20:48:56.132Z,16.40
2023-03-20T20:51:01.327Z,14.32
2023-03-20T20:53:03.854Z,18.20
2023-03-20T20:55:21.748Z,16.05
2023-03-20T20:57:27.679Z,25.80
2023-03-20T20:59:29.597Z,12.00
2023-03-20T21:01:33.885Z,16.55
2023-03-20T21:03:38.768Z,16.85
2023-03-20T21:05:43.486Z,21.88
2023-03-20T21:07:48.900Z,13.73
2023-03-20T21:09:50.573Z,12.02
2023-03-20T21:11:52.126Z,18.58
2023-03-20T21:13:53.752Z,19.45
2023-03-20T21:18:18.992Z,17.67
2023-03-20T21:20:23.923Z,18.92
2023-03-20T21:22:31.672Z,7.57
2023-03-20T21:26:56.380Z,15.00
2023-03-20T21:28:58.124Z,20.67
2023-03-20T21:31:25.589Z,19.58
2023-03-20T21:33:30.812Z,14.52
2023-03-20T21:35:32.448Z,22.30
2023-03-20T21:38:30.102Z,20.42
2023-03-20T21:39:56.945Z,22.58
2023-03-20T21:41:58.781Z,18.20
2023-03-20T21:44:01.581Z,18.80
2023-03-20T21:46:42.368Z,21.65
2023-03-20T21:50:19.116Z,23.10
2023-03-20T21:51:31.277Z,22.08
2023-03-20T21:54:07.905Z,20.75
2023-03-20T21:56:23.745Z,16.30
2023-03-20T21:58:38.408Z,24.15
2023-03-20T22:02:48.946Z,20.45
2023-03-20T22:05:53.055Z,16.02
2023-03-20T22:12:56.088Z,21.35
2023-03-20T22:17:46.529Z,31.07
2023-03-20T22:22:22.980Z,22.40
2023-03-20T22:27:27.014Z,23.48
2023-03-20T22:31:55.242Z,20.50
2023-03-20T22:37:19.407Z,36.25
2023-03-20T22:41:59.241Z,23.92
2023-03-20T22:46:07.811Z,35.72
2023-03-20T22:48:21.654Z,30.80
2023-03-20T22:50:26.005Z,33.03
2023-03-20T22:52:41.742Z,27.73
2023-03-20T22:54:48.934Z,29.95
2023-03-20T22:56:53.807Z,29.73
2023-03-20T22:58:57.925Z,29.42
2023-03-20T23:00:59.496Z,29.67
2023-03-20T23:03:15.315Z,23.25
2023-03-20T23:05:18.872Z,31.45
2023-03-20T23:07:20.473Z,20.83
2023-03-20T23:09:21.961Z,28.05
2023-03-20T23:11:27.022Z,34.83
2023-03-20T23:13:28.416Z,30.63
2023-03-20T23:15:31.106Z,25.38
2023-03-20T23:17:32.870Z,36.35
2023-03-20T23:19:47.994Z,30.33
2023-03-20T23:21:54.719Z,35.50
2023-03-20T23:23:59.123Z,27.83
2023-03-20T23:26:08.175Z,28.70
2023-03-20T23:28:09.876Z,29.33
2023-03-20T23:30:14.224Z,35.72
2023-03-20T23:32:15.885Z,27.42
2023-03-20T23:34:18.184Z,31.40
2023-03-20T23:36:35.346Z,27.92
2023-03-20T23:38:38.209Z,27.63
2023-03-20T23:40:39.952Z,23.40
2023-03-20T23:42:41.615Z,32.78
2023-03-20T23:44:53.480Z,29.23
2023-03-20T23:46:57.666Z,32.47
2023-03-20T23:49:02.141Z,27.60
2023-03-20T23:51:06.619Z,30.77
2023-03-20T23:53:19.814Z,35.15
2023-03-20T23:55:34.387Z,32.88
2023-03-20T23:57:52.301Z,28.80
